KBRD/BRD METAR and TAF weather

Enter ICAO airport designator
Station Type Date Time Source
KBRD METAR 2020/07/12 04:53 UTC NOAA

KBRD 120453Z AUTO 00000KT 10SM CLR 19/14 A2997 RMK AO2 SLP143 T01940139


Station Type Date Time Source
KBRD Decoded METAR 2020/07/12 04:53 UTC NOAA

BRAINERD-CROW WING CO AIRPORT , MN, United States (KBRD) 46-24N 94-08W 372M
Jul 12, 2020 - 12:53 AM EDT / 2020.07.12 0453 UTC
Wind: Calm:0
Visibility: 10 mile(s):0
Sky conditions: clear
Temperature: 66.9 F (19.4 C)
Dew Point: 57.0 F (13.9 C)
Relative Humidity: 70%
Pressure (altimeter): 29.97 in. Hg (1014 hPa)
ob: KBRD 120453Z AUTO 00000KT 10SM CLR 19/14 A2997 RMK AO2 SLP143 T01940139
cycle: 5

Station Type Date Time Source
KBRD TAF 2020/07/11 19:36 UTC NOAA

TAF
AMD KBRD 111833Z 1119/1218 VRB06KT P6SM SCT045 OVC150
FM112000 33010KT P6SM VCSH BKN045 OVC150
FM120000 VRB06KT P6SM FEW050 SCT150
FM120800 00000KT 4SM BR FEW050
TEMPO 1209/1210 1/2SM FG VV002
FM121100 34008KT P6SM SCT040

Example: see airport list